createdAt,value
2022-07-26T00:00:03.298Z,76.70
2022-07-26T00:02:31.527Z,78.00
2022-07-26T00:04:59.845Z,80.10
2022-07-26T00:07:28.067Z,78.20
2022-07-26T00:10:07.151Z,79.70
2022-07-26T00:12:35.502Z,76.50
2022-07-26T00:15:04.632Z,79.50
2022-07-26T00:17:32.776Z,77.60
2022-07-26T00:20:01.012Z,82.00
2022-07-26T00:22:39.795Z,80.50
2022-07-26T00:25:10.507Z,78.90
2022-07-26T00:27:38.865Z,78.50
2022-07-26T00:30:08.927Z,84.10
2022-07-26T00:32:37.653Z,80.10
2022-07-26T00:35:06.624Z,80.30
2022-07-26T00:37:34.969Z,80.30
2022-07-26T00:40:03.209Z,83.50
2022-07-26T00:42:33.083Z,84.40
2022-07-26T00:45:01.787Z,83.50
2022-07-26T00:47:29.949Z,83.40
2022-07-26T00:49:58.175Z,83.60
2022-07-26T00:52:26.653Z,83.90
2022-07-26T00:54:56.216Z,82.60
2022-07-26T00:57:25.168Z,82.50
2022-07-26T00:59:54.689Z,82.00
2022-07-26T01:02:22.909Z,84.00
2022-07-26T01:04:51.051Z,86.30
2022-07-26T01:07:19.376Z,96.70
2022-07-26T01:09:47.551Z,84.10
2022-07-26T01:12:15.624Z,86.20
2022-07-26T01:14:44.798Z,86.50
2022-07-26T01:17:15.088Z,86.60
2022-07-26T01:19:43.339Z,84.70
2022-07-26T01:22:14.799Z,86.70
2022-07-26T01:24:43.371Z,86.30
2022-07-26T01:27:11.507Z,87.70
2022-07-26T01:29:39.718Z,90.60
2022-07-26T01:32:09.273Z,90.90
2022-07-26T01:34:39.404Z,88.70
2022-07-26T01:37:07.655Z,90.50
2022-07-26T01:39:37.434Z,90.60
2022-07-26T01:42:05.938Z,92.00
2022-07-26T01:44:34.149Z,92.60
2022-07-26T01:47:02.320Z,91.90
2022-07-26T01:49:30.496Z,93.10
2022-07-26T01:51:58.588Z,91.70
2022-07-26T01:54:26.779Z,91.80
2022-07-26T01:56:56.773Z,91.00
2022-07-26T01:59:25.146Z,91.50
2022-07-26T02:01:53.356Z,90.50
2022-07-26T02:04:39.126Z,90.40
2022-07-26T02:07:09.331Z,90.80
2022-07-26T02:09:41.327Z,90.90
2022-07-26T02:12:11.245Z,90.60
2022-07-26T02:14:39.519Z,91.50
2022-07-26T02:17:07.801Z,91.60
2022-07-26T02:19:36.579Z,92.80
2022-07-26T02:22:04.970Z,90.60
2022-07-26T02:24:33.095Z,90.90
2022-07-26T02:27:02.837Z,91.30
2022-07-26T02:29:33.083Z,91.30
2022-07-26T02:32:01.300Z,91.80
2022-07-26T02:34:33.764Z,94.20
2022-07-26T02:37:02.609Z,93.30
2022-07-26T02:39:31.274Z,91.80
2022-07-26T02:42:01.945Z,91.50
2022-07-26T02:44:32.185Z,90.70
2022-07-26T02:47:00.395Z,92.20
2022-07-26T02:49:28.597Z,93.00
2022-07-26T02:51:56.790Z,93.00
2022-07-26T02:54:24.913Z,93.90
2022-07-26T02:56:53.054Z,93.90
2022-07-26T02:59:21.229Z,94.00
2022-07-26T03:01:50.870Z,93.40
2022-07-26T03:04:19.089Z,96.20
2022-07-26T03:06:47.246Z,94.10
2022-07-26T03:09:15.514Z,94.80
2022-07-26T03:11:43.641Z,93.90
2022-07-26T03:14:12.130Z,94.80
2022-07-26T03:16:40.463Z,94.60
2022-07-26T03:19:10.011Z,94.60
2022-07-26T03:21:38.231Z,94.50
2022-07-26T03:24:07.477Z,95.70
2022-07-26T03:26:35.767Z,93.50
2022-07-26T03:29:03.873Z,95.40
2022-07-26T03:31:32.064Z,95.50
2022-07-26T03:34:03.240Z,95.90
2022-07-26T03:36:33.154Z,95.50
2022-07-26T03:39:01.371Z,96.10
2022-07-26T03:41:31.557Z,95.10
2022-07-26T03:43:59.692Z,95.20
2022-07-26T03:46:27.903Z,95.30
2022-07-26T03:48:56.200Z,96.60
2022-07-26T03:51:24.789Z,97.20
2022-07-26T03:53:54.271Z,94.80
2022-07-26T03:56:31.838Z,95.70
2022-07-26T03:59:01.161Z,94.40
2022-07-26T04:01:29.709Z,94.60
2022-07-26T04:03:58.154Z,94.50
2022-07-26T04:06:26.254Z,95.20
2022-07-26T04:08:56.129Z,95.30
2022-07-26T04:11:28.288Z,94.90
2022-07-26T04:13:57.364Z,96.50
2022-07-26T04:16:25.887Z,95.20
2022-07-26T04:18:54.362Z,95.00
2022-07-26T04:21:23.063Z,95.60
2022-07-26T04:23:51.827Z,94.80
2022-07-26T04:26:22.366Z,96.70
2022-07-26T04:28:50.821Z,94.70
2022-07-26T04:31:19.223Z,94.80
2022-07-26T04:33:47.671Z,95.70
2022-07-26T04:36:15.836Z,95.10
2022-07-26T04:38:44.009Z,95.20
2022-07-26T04:41:12.408Z,95.60
2022-07-26T04:43:42.209Z,95.40
2022-07-26T04:46:10.635Z,95.60
2022-07-26T04:48:39.701Z,95.30
2022-07-26T04:51:08.047Z,95.60
2022-07-26T04:53:36.216Z,96.60
2022-07-26T04:56:05.914Z,96.50
2022-07-26T04:58:33.992Z,96.90
2022-07-26T05:01:09.991Z,97.70
2022-07-26T05:03:38.711Z,98.50
2022-07-26T05:06:07.131Z,97.70
2022-07-26T05:08:35.282Z,98.80
2022-07-26T05:11:04.186Z,99.90
2022-07-26T05:13:32.384Z,98.30
2022-07-26T05:16:01.848Z,99.10
2022-07-26T05:18:48.972Z,98.40
2022-07-26T05:21:18.235Z,97.30
2022-07-26T05:23:46.533Z,98.20
2022-07-26T05:26:14.758Z,99.90
2022-07-26T05:28:43.189Z,99.90
2022-07-26T05:31:11.494Z,99.90
2022-07-26T05:33:41.114Z,99.90
2022-07-26T05:36:09.658Z,99.90
2022-07-26T05:38:37.941Z,99.90
2022-07-26T05:41:06.504Z,99.90
2022-07-26T05:43:40.766Z,99.90
2022-07-26T05:46:09.955Z,99.90
2022-07-26T05:48:40.509Z,99.90
2022-07-26T05:51:09.457Z,99.90
2022-07-26T05:53:37.767Z,99.90
2022-07-26T05:56:06.784Z,99.90
2022-07-26T05:58:34.940Z,99.90
2022-07-26T06:01:03.181Z,99.90
2022-07-26T06:03:32.331Z,99.90
2022-07-26T06:06:01.852Z,99.90
2022-07-26T06:08:30.171Z,99.90
2022-07-26T06:10:59.105Z,99.90
2022-07-26T06:13:27.294Z,99.90
2022-07-26T06:15:55.594Z,99.90
2022-07-26T06:18:23.740Z,99.90
2022-07-26T06:20:52.003Z,99.90
2022-07-26T06:23:33.893Z,99.90
2022-07-26T06:26:04.803Z,99.90
2022-07-26T06:28:34.006Z,98.80
2022-07-26T06:31:02.274Z,98.00
2022-07-26T06:33:30.588Z,97.60
2022-07-26T06:35:58.752Z,96.40
2022-07-26T06:38:28.394Z,97.00
2022-07-26T06:40:56.582Z,96.10
2022-07-26T06:43:40.382Z,95.50
2022-07-26T06:46:08.651Z,94.40
2022-07-26T06:48:36.843Z,94.80
2022-07-26T06:51:10.206Z,99.90
2022-07-26T06:53:39.971Z,92.40
2022-07-26T06:56:08.856Z,94.10
2022-07-26T06:58:37.033Z,93.50
2022-07-26T07:01:05.309Z,93.90
2022-07-26T07:03:33.591Z,93.40
2022-07-26T07:06:04.243Z,93.90
2022-07-26T07:08:32.533Z,93.30
2022-07-26T07:11:02.171Z,91.80
2022-07-26T07:13:31.990Z,94.40
2022-07-26T07:16:00.207Z,92.70
2022-07-26T07:18:28.444Z,92.70
2022-07-26T07:20:58.898Z,89.80
2022-07-26T07:23:27.103Z,87.10
2022-07-26T07:25:55.330Z,90.50
2022-07-26T07:28:25.350Z,88.20
2022-07-26T07:30:53.586Z,89.30
2022-07-26T07:33:21.951Z,88.90
2022-07-26T07:35:52.054Z,87.80
2022-07-26T07:38:20.381Z,84.10
2022-07-26T07:40:50.959Z,87.50
2022-07-26T07:43:19.175Z,86.30
2022-07-26T07:45:48.991Z,87.80
2022-07-26T07:48:17.240Z,87.30
2022-07-26T07:50:45.712Z,87.10
2022-07-26T07:53:13.993Z,83.90
2022-07-26T07:55:46.294Z,87.00
2022-07-26T07:58:19.029Z,80.80
2022-07-26T08:00:49.134Z,81.20
2022-07-26T08:03:18.554Z,79.90
2022-07-26T08:05:49.650Z,81.00
2022-07-26T08:08:18.948Z,79.10
2022-07-26T08:10:52.388Z,77.00
2022-07-26T08:13:21.776Z,76.50
2022-07-26T08:15:51.767Z,79.40
2022-07-26T08:18:22.359Z,81.50
2022-07-26T08:20:51.288Z,80.40
2022-07-26T08:23:21.697Z,81.70
2022-07-26T08:25:57.165Z,78.60
2022-07-26T08:28:46.770Z,77.00
2022-07-26T08:31:20.022Z,77.60
2022-07-26T08:33:48.247Z,76.40
2022-07-26T08:36:17.073Z,77.20
2022-07-26T08:38:47.479Z,76.40
2022-07-26T08:41:17.023Z,76.80
2022-07-26T08:43:51.716Z,74.00
2022-07-26T08:46:26.913Z,76.50
2022-07-26T08:48:55.622Z,74.90
2022-07-26T08:51:25.862Z,78.30
2022-07-26T08:54:03.758Z,74.50
2022-07-26T08:56:33.564Z,75.30
2022-07-26T08:59:05.438Z,73.90
2022-07-26T09:01:35.509Z,73.40
2022-07-26T09:04:30.318Z,77.90
2022-07-26T09:07:03.608Z,77.40
2022-07-26T09:09:32.544Z,74.40
2022-07-26T09:12:13.962Z,72.70
2022-07-26T09:14:42.480Z,72.70
2022-07-26T09:17:12.078Z,75.40
2022-07-26T09:19:40.823Z,77.30
2022-07-26T09:22:11.662Z,75.70
2022-07-26T09:24:42.313Z,76.00
2022-07-26T09:27:12.333Z,73.20
2022-07-26T09:29:48.491Z,73.40
2022-07-26T09:32:20.225Z,73.50
2022-07-26T09:34:53.241Z,74.20
2022-07-26T09:37:35.160Z,73.70
2022-07-26T09:40:05.744Z,92.00
2022-07-26T09:42:33.834Z,74.70
2022-07-26T09:45:02.541Z,77.80
2022-07-26T09:47:39.756Z,74.10
2022-07-26T09:50:13.103Z,74.50
2022-07-26T09:52:42.288Z,73.70
2022-07-26T09:55:13.277Z,75.40
2022-07-26T09:57:41.605Z,72.00
2022-07-26T10:00:11.132Z,73.90
2022-07-26T10:02:40.847Z,70.60
2022-07-26T10:05:09.545Z,73.30
2022-07-26T10:07:38.786Z,73.00
2022-07-26T10:10:12.014Z,71.50
2022-07-26T10:12:41.047Z,71.20
2022-07-26T10:15:36.716Z,75.30
2022-07-26T10:18:08.401Z,71.70
2022-07-26T10:20:51.913Z,72.60
2022-07-26T10:23:41.543Z,70.70
2022-07-26T10:26:13.021Z,70.60
2022-07-26T10:28:42.005Z,71.70
2022-07-26T10:31:30.515Z,72.80
2022-07-26T10:34:01.775Z,71.10
2022-07-26T10:36:35.803Z,70.20
2022-07-26T10:39:14.634Z,71.70
2022-07-26T10:41:46.217Z,70.50
2022-07-26T10:44:24.144Z,73.00
2022-07-26T10:47:04.847Z,73.50
2022-07-26T10:49:36.196Z,72.00
2022-07-26T10:52:09.944Z,71.40
2022-07-26T10:55:17.908Z,71.80
2022-07-26T10:57:48.610Z,70.40
2022-07-26T11:00:22.778Z,69.60
2022-07-26T11:02:55.703Z,68.80
2022-07-26T11:05:31.073Z,68.70
2022-07-26T11:08:05.309Z,70.50
2022-07-26T11:10:35.721Z,70.40
2022-07-26T11:13:09.629Z,69.80
2022-07-26T11:15:39.450Z,68.50
2022-07-26T11:18:24.283Z,69.80
2022-07-26T11:20:57.446Z,66.60
2022-07-26T11:23:30.785Z,68.80
2022-07-26T11:26:07.557Z,67.30
2022-07-26T11:29:06.118Z,70.10
2022-07-26T11:31:57.932Z,69.50
2022-07-26T11:34:30.303Z,74.20
2022-07-26T11:37:01.190Z,73.70
2022-07-26T11:39:31.236Z,91.20
2022-07-26T11:42:01.010Z,74.10
2022-07-26T11:44:29.851Z,73.20
2022-07-26T11:46:58.728Z,73.70
2022-07-26T11:49:52.241Z,73.70
2022-07-26T11:52:25.248Z,72.60
2022-07-26T11:54:55.280Z,73.70
2022-07-26T11:57:29.165Z,73.00
2022-07-26T11:59:57.799Z,71.50
2022-07-26T12:02:27.035Z,73.20
2022-07-26T12:05:14.397Z,74.10
2022-07-26T12:07:57.247Z,72.60
2022-07-26T12:10:26.033Z,73.00
2022-07-26T12:13:08.975Z,71.40
2022-07-26T12:15:48.450Z,70.70
2022-07-26T12:18:24.689Z,69.10
2022-07-26T12:21:05.142Z,69.30
2022-07-26T12:23:44.815Z,70.80
2022-07-26T12:26:26.401Z,67.60
2022-07-26T12:28:55.639Z,69.80
2022-07-26T12:31:28.997Z,67.70
2022-07-26T12:33:58.058Z,67.00
2022-07-26T12:36:30.578Z,69.40
2022-07-26T12:39:01.481Z,67.30
2022-07-26T12:41:34.198Z,67.90
2022-07-26T12:44:03.145Z,66.50
2022-07-26T12:46:34.462Z,68.30
2022-07-26T12:49:03.270Z,68.40
2022-07-26T12:51:31.576Z,71.10
2022-07-26T12:54:01.319Z,74.30
2022-07-26T12:56:30.925Z,73.60
2022-07-26T12:59:01.356Z,71.40
2022-07-26T13:01:31.146Z,73.70
2022-07-26T13:03:59.356Z,72.30
2022-07-26T13:06:28.014Z,75.80
2022-07-26T13:08:57.143Z,72.80
2022-07-26T13:11:26.830Z,71.20
2022-07-26T13:13:57.627Z,72.60
2022-07-26T13:16:27.758Z,67.60
2022-07-26T13:18:56.464Z,69.60
2022-07-26T13:21:25.650Z,65.60
2022-07-26T13:24:02.310Z,63.20
2022-07-26T13:26:31.994Z,63.70
2022-07-26T13:29:00.113Z,66.60
2022-07-26T13:31:28.384Z,66.20
2022-07-26T13:33:56.817Z,65.40
2022-07-26T13:36:25.067Z,64.90
2022-07-26T13:38:53.242Z,69.00
2022-07-26T13:41:21.441Z,72.70
2022-07-26T13:43:51.715Z,70.40
2022-07-26T13:46:20.103Z,68.80
2022-07-26T13:49:00.609Z,70.60
2022-07-26T13:51:47.129Z,70.00
2022-07-26T13:54:17.964Z,65.40
2022-07-26T13:56:46.778Z,65.60
2022-07-26T13:59:16.924Z,68.00
2022-07-26T14:01:45.836Z,68.00
2022-07-26T14:04:14.913Z,65.80
2022-07-26T14:06:43.948Z,67.50
2022-07-26T14:09:12.379Z,67.80
2022-07-26T14:11:41.139Z,66.40
2022-07-26T14:14:09.811Z,65.70
2022-07-26T14:16:40.226Z,65.80
2022-07-26T14:19:08.638Z,63.60
2022-07-26T14:21:48.968Z,67.10
2022-07-26T14:24:26.821Z,63.70
2022-07-26T14:26:58.832Z,62.40
2022-07-26T14:29:28.397Z,62.80
2022-07-26T14:31:58.572Z,60.50
2022-07-26T14:34:27.050Z,59.60
2022-07-26T14:36:55.370Z,59.70
2022-07-26T14:39:23.589Z,62.10
2022-07-26T14:41:51.952Z,63.40
2022-07-26T14:44:20.228Z,62.20
2022-07-26T14:46:49.083Z,63.50
2022-07-26T14:49:18.754Z,64.50
2022-07-26T14:51:48.116Z,65.30
2022-07-26T14:54:17.927Z,59.90
2022-07-26T14:56:46.203Z,62.10
2022-07-26T14:59:15.235Z,60.70
2022-07-26T15:01:43.563Z,58.70
2022-07-26T15:04:12.768Z,64.60
2022-07-26T15:06:42.803Z,60.30
2022-07-26T15:09:11.040Z,61.60
2022-07-26T15:11:39.319Z,59.90
2022-07-26T15:14:08.018Z,58.20
2022-07-26T15:16:36.706Z,58.30
2022-07-26T15:19:04.937Z,57.50
2022-07-26T15:21:33.148Z,58.40
2022-07-26T15:24:03.063Z,58.60
2022-07-26T15:26:31.300Z,57.40
2022-07-26T15:28:59.593Z,57.30
2022-07-26T15:31:36.898Z,58.10
2022-07-26T15:34:07.548Z,57.30
2022-07-26T15:36:36.020Z,56.00
2022-07-26T15:39:16.583Z,57.40
2022-07-26T15:41:45.957Z,56.00
2022-07-26T15:44:16.278Z,55.90
2022-07-26T15:46:45.870Z,55.60
2022-07-26T15:49:17.094Z,54.80
2022-07-26T15:51:46.147Z,53.60
2022-07-26T15:54:16.864Z,53.20
2022-07-26T15:56:45.192Z,53.40
2022-07-26T15:59:13.693Z,51.80
2022-07-26T16:01:42.037Z,52.10
2022-07-26T16:04:10.439Z,53.40
2022-07-26T16:06:39.101Z,55.00
2022-07-26T16:09:22.941Z,52.80
2022-07-26T16:11:52.553Z,54.20
2022-07-26T16:14:20.834Z,55.50
2022-07-26T16:16:49.218Z,56.20
2022-07-26T16:19:17.598Z,55.20
2022-07-26T16:21:53.145Z,53.40
2022-07-26T16:24:21.677Z,52.10
2022-07-26T16:26:51.345Z,54.40
2022-07-26T16:29:21.150Z,71.60
2022-07-26T16:31:49.495Z,53.80
2022-07-26T16:34:17.781Z,53.10
2022-07-26T16:36:45.934Z,53.90
2022-07-26T16:39:14.842Z,53.20
2022-07-26T16:41:43.954Z,52.90
2022-07-26T16:44:12.468Z,52.70
2022-07-26T16:46:42.937Z,51.30
2022-07-26T16:49:13.469Z,52.00
2022-07-26T16:51:41.939Z,53.20
2022-07-26T16:54:10.293Z,53.90
2022-07-26T16:56:38.512Z,53.40
2022-07-26T16:59:10.460Z,51.80
2022-07-26T17:01:39.278Z,53.30
2022-07-26T17:04:09.074Z,50.00
2022-07-26T17:06:37.352Z,52.20
2022-07-26T17:09:06.027Z,52.30
2022-07-26T17:11:34.556Z,49.70
2022-07-26T17:14:02.841Z,51.30
2022-07-26T17:16:31.524Z,50.50
2022-07-26T17:19:00.036Z,49.50
2022-07-26T17:21:30.211Z,51.10
2022-07-26T17:24:02.628Z,49.60
2022-07-26T17:26:33.858Z,51.20
2022-07-26T17:29:06.319Z,48.70
2022-07-26T17:31:34.774Z,48.90
2022-07-26T17:34:03.137Z,49.30
2022-07-26T17:36:33.080Z,48.20
2022-07-26T17:39:07.043Z,48.40
2022-07-26T17:41:36.672Z,47.90
2022-07-26T17:44:09.645Z,48.50
2022-07-26T17:46:37.847Z,49.00
2022-07-26T17:49:06.298Z,48.90
2022-07-26T17:51:36.027Z,48.60
2022-07-26T17:54:04.563Z,49.10
2022-07-26T17:56:33.022Z,48.20
2022-07-26T17:59:01.685Z,48.50
2022-07-26T18:01:30.139Z,47.80
2022-07-26T18:03:58.691Z,47.30
2022-07-26T18:06:27.070Z,49.70
2022-07-26T18:08:58.832Z,47.60
2022-07-26T18:11:27.197Z,47.60
2022-07-26T18:13:55.720Z,47.00
2022-07-26T18:16:24.024Z,47.40
2022-07-26T18:18:52.400Z,48.30
2022-07-26T18:21:21.248Z,47.50
2022-07-26T18:24:14.399Z,45.20
2022-07-26T18:26:40.136Z,46.70
2022-07-26T18:29:09.243Z,46.90
2022-07-26T18:31:38.030Z,47.40
2022-07-26T18:34:06.947Z,46.00
2022-07-26T18:36:35.706Z,46.90
2022-07-26T18:39:04.398Z,44.90
2022-07-26T18:41:34.281Z,46.90
2022-07-26T18:44:04.758Z,46.20
2022-07-26T18:46:33.706Z,44.20
2022-07-26T18:49:02.708Z,45.20
2022-07-26T18:51:31.681Z,45.20
2022-07-26T18:54:00.178Z,46.00
2022-07-26T18:56:28.735Z,46.40
2022-07-26T18:58:57.917Z,43.50
2022-07-26T19:01:27.790Z,44.30
2022-07-26T19:03:58.118Z,46.50
2022-07-26T19:06:27.319Z,43.40
2022-07-26T19:08:55.655Z,44.30
2022-07-26T19:11:26.889Z,44.10
2022-07-26T19:13:55.303Z,44.60
2022-07-26T19:16:23.682Z,44.30
2022-07-26T19:18:57.347Z,44.60
2022-07-26T19:21:26.257Z,43.10
2022-07-26T19:23:54.663Z,44.00
2022-07-26T19:26:23.882Z,43.50
2022-07-26T19:28:52.268Z,43.30
2022-07-26T19:31:21.097Z,58.60
2022-07-26T19:33:50.292Z,44.00
2022-07-26T19:36:25.831Z,43.70
2022-07-26T19:38:56.732Z,42.40
2022-07-26T19:41:26.754Z,42.30
2022-07-26T19:43:58.226Z,41.60
2022-07-26T19:46:28.319Z,41.30
2022-07-26T19:48:58.226Z,40.50
2022-07-26T19:51:29.069Z,41.00
2022-07-26T19:53:58.455Z,41.00
2022-07-26T19:56:28.483Z,41.70
2022-07-26T19:58:57.200Z,40.80
2022-07-26T20:01:26.528Z,40.80
2022-07-26T20:03:56.044Z,41.70
2022-07-26T20:06:24.567Z,40.40
2022-07-26T20:08:55.807Z,39.90
2022-07-26T20:11:25.181Z,41.10
2022-07-26T20:13:55.486Z,41.20
2022-07-26T20:16:24.036Z,40.40
2022-07-26T20:18:52.970Z,40.60
2022-07-26T20:21:22.689Z,38.80
2022-07-26T20:23:50.966Z,39.90
2022-07-26T20:26:21.893Z,40.20
2022-07-26T20:28:51.090Z,38.80
2022-07-26T20:31:19.674Z,40.00
2022-07-26T20:33:49.451Z,37.90
2022-07-26T20:36:18.643Z,38.30
2022-07-26T20:38:51.486Z,39.10
2022-07-26T20:41:22.663Z,39.70
2022-07-26T20:43:51.183Z,39.30
2022-07-26T20:46:20.369Z,39.50
2022-07-26T20:48:54.313Z,39.30
2022-07-26T20:51:23.195Z,38.10
2022-07-26T20:53:51.968Z,38.60
2022-07-26T20:56:21.864Z,41.10
2022-07-26T20:58:50.448Z,39.60
2022-07-26T21:01:19.100Z,39.60
2022-07-26T21:03:48.708Z,41.90
2022-07-26T21:06:17.229Z,39.20
2022-07-26T21:08:46.031Z,39.90
2022-07-26T21:11:14.186Z,39.20
2022-07-26T21:13:44.837Z,39.10
2022-07-26T21:16:14.549Z,39.00
2022-07-26T21:18:43.281Z,38.00
2022-07-26T21:21:12.907Z,38.90
2022-07-26T21:23:41.512Z,38.80
2022-07-26T21:26:09.965Z,41.00
2022-07-26T21:28:38.312Z,39.20
2022-07-26T21:31:08.196Z,40.10
2022-07-26T21:33:36.492Z,39.30
2022-07-26T21:36:05.083Z,39.30
2022-07-26T21:38:34.473Z,37.80
2022-07-26T21:41:02.740Z,38.30
2022-07-26T21:43:31.847Z,38.80
2022-07-26T21:46:00.348Z,51.80
2022-07-26T21:48:30.783Z,38.30
2022-07-26T21:50:59.079Z,37.90
2022-07-26T21:53:27.481Z,52.20
2022-07-26T21:55:55.654Z,37.50
2022-07-26T21:58:27.574Z,38.70
2022-07-26T22:01:06.139Z,38.90
2022-07-26T22:03:37.975Z,37.90
2022-07-26T22:06:07.213Z,37.00
2022-07-26T22:08:35.723Z,37.10
2022-07-26T22:11:04.784Z,37.40
2022-07-26T22:13:33.260Z,37.60
2022-07-26T22:16:01.755Z,38.30
2022-07-26T22:18:30.157Z,36.70
2022-07-26T22:21:01.133Z,37.60
2022-07-26T22:23:31.185Z,38.80
2022-07-26T22:26:01.896Z,37.10
2022-07-26T22:28:31.086Z,36.20
2022-07-26T22:31:00.045Z,35.50
2022-07-26T22:33:28.253Z,36.40
2022-07-26T22:35:56.531Z,36.40
2022-07-26T22:38:26.240Z,36.60
2022-07-26T22:40:54.476Z,37.30
2022-07-26T22:43:22.690Z,38.70
2022-07-26T22:45:50.951Z,36.60
2022-07-26T22:48:19.103Z,37.40
2022-07-26T22:50:47.177Z,36.20
2022-07-26T22:53:16.378Z,36.90
2022-07-26T22:55:46.005Z,36.60
2022-07-26T22:58:14.475Z,35.90
2022-07-26T23:00:42.733Z,34.40
2022-07-26T23:03:19.579Z,36.20
2022-07-26T23:05:48.669Z,36.80
2022-07-26T23:11:07.429Z,36.60
2022-07-26T23:13:36.048Z,35.80
2022-07-26T23:16:04.437Z,36.10
2022-07-26T23:18:34.403Z,35.60
2022-07-26T23:21:03.803Z,34.80
2022-07-26T23:23:32.457Z,50.00
2022-07-26T23:26:01.103Z,36.30
2022-07-26T23:28:37.250Z,36.90
2022-07-26T23:31:08.765Z,36.10
2022-07-26T23:33:51.358Z,34.30
2022-07-26T23:36:22.920Z,35.90
2022-07-26T23:38:51.486Z,34.10
2022-07-26T23:41:20.242Z,35.80
2022-07-26T23:43:50.188Z,34.60
2022-07-26T23:46:31.612Z,35.10
2022-07-26T23:49:00.202Z,33.10
2022-07-26T23:51:28.780Z,35.90
2022-07-26T23:53:56.939Z,35.40
2022-07-26T23:56:25.294Z,35.30
2022-07-26T23:58:54.989Z,35.80
